sensor_id;sensor_type;location;lat;lon;timestamp;P1;durP1;ratioP1;P2;durP2;ratioP2
60292;SDS011;52402;52.670;6.750;2022-09-11T00:00:31;36.20;;;32.30;;
60292;SDS011;52402;52.670;6.750;2022-09-11T00:02:57;44.47;;;36.80;;
60292;SDS011;52402;52.670;6.750;2022-09-11T00:05:23;39.45;;;35.15;;
60292;SDS011;52402;52.670;6.750;2022-09-11T00:07:51;39.08;;;34.15;;
60292;SDS011;52402;52.670;6.750;2022-09-11T00:10:17;37.70;;;33.60;;
60292;SDS011;52402;52.670;6.750;2022-09-11T00:12:42;63.45;;;41.60;;
60292;SDS011;52402;52.670;6.750;2022-09-11T00:15:08;42.58;;;36.30;;
60292;SDS011;52402;52.670;6.750;2022-09-11T00:17:34;47.42;;;37.75;;
60292;SDS011;52402;52.670;6.750;2022-09-11T00:20:02;46.75;;;37.83;;
60292;SDS011;52402;52.670;6.750;2022-09-11T00:22:28;52.33;;;40.50;;
60292;SDS011;52402;52.670;6.750;2022-09-11T00:24:54;49.22;;;39.33;;
60292;SDS011;52402;52.670;6.750;2022-09-11T00:27:20;93.57;;;48.00;;
60292;SDS011;52402;52.670;6.750;2022-09-11T00:29:45;63.92;;;42.10;;
60292;SDS011;52402;52.670;6.750;2022-09-11T00:32:11;48.30;;;39.17;;
60292;SDS011;52402;52.670;6.750;2022-09-11T00:34:37;48.80;;;38.42;;
60292;SDS011;52402;52.670;6.750;2022-09-11T00:37:03;60.03;;;41.88;;
60292;SDS011;52402;52.670;6.750;2022-09-11T00:39:29;50.55;;;39.58;;
60292;SDS011;52402;52.670;6.750;2022-09-11T00:41:55;43.05;;;36.75;;
60292;SDS011;52402;52.670;6.750;2022-09-11T00:51:51;66.47;;;43.05;;
60292;SDS011;52402;52.670;6.750;2022-09-11T00:54:27;57.13;;;42.55;;
60292;SDS011;52402;52.670;6.750;2022-09-11T00:56:56;48.90;;;40.42;;
60292;SDS011;52402;52.670;6.750;2022-09-11T00:59:27;44.35;;;38.60;;
60292;SDS011;52402;52.670;6.750;2022-09-11T01:01:55;51.92;;;40.40;;
60292;SDS011;52402;52.670;6.750;2022-09-11T01:04:21;82.38;;;47.15;;
60292;SDS011;52402;52.670;6.750;2022-09-11T01:06:49;61.78;;;44.53;;
60292;SDS011;52402;52.670;6.750;2022-09-11T01:09:17;48.88;;;39.20;;
60292;SDS011;52402;52.670;6.750;2022-09-11T01:14:28;51.50;;;39.47;;
60292;SDS011;52402;52.670;6.750;2022-09-11T01:17:11;46.90;;;38.90;;
60292;SDS011;52402;52.670;6.750;2022-09-11T01:27:49;47.05;;;38.17;;
60292;SDS011;52402;52.670;6.750;2022-09-11T01:30:21;66.13;;;42.40;;
60292;SDS011;52402;52.670;6.750;2022-09-11T01:32:54;70.05;;;41.92;;
60292;SDS011;52402;52.670;6.750;2022-09-11T01:35:51;62.75;;;41.40;;
60292;SDS011;52402;52.670;6.750;2022-09-11T01:46:20;77.07;;;39.50;;
60292;SDS011;52402;52.670;6.750;2022-09-11T01:48:49;48.58;;;36.85;;
60292;SDS011;52402;52.670;6.750;2022-09-11T01:51:23;47.88;;;38.13;;
60292;SDS011;52402;52.670;6.750;2022-09-11T01:53:53;44.50;;;36.90;;
60292;SDS011;52402;52.670;6.750;2022-09-11T01:56:22;38.03;;;33.95;;
60292;SDS011;52402;52.670;6.750;2022-09-11T01:58:55;68.25;;;42.75;;
60292;SDS011;52402;52.670;6.750;2022-09-11T02:01:26;67.22;;;40.95;;
60292;SDS011;52402;52.670;6.750;2022-09-11T02:04:18;42.13;;;34.83;;
60292;SDS011;52402;52.670;6.750;2022-09-11T02:06:51;71.50;;;39.58;;
60292;SDS011;52402;52.670;6.750;2022-09-11T02:09:26;41.15;;;36.22;;
60292;SDS011;52402;52.670;6.750;2022-09-11T02:12:00;41.35;;;36.47;;
60292;SDS011;52402;52.670;6.750;2022-09-11T02:14:44;55.67;;;39.45;;
60292;SDS011;52402;52.670;6.750;2022-09-11T02:19:45;92.65;;;44.58;;
60292;SDS011;52402;52.670;6.750;2022-09-11T02:22:10;64.22;;;41.33;;
60292;SDS011;52402;52.670;6.750;2022-09-11T02:24:36;106.20;;;47.38;;
60292;SDS011;52402;52.670;6.750;2022-09-11T02:27:11;63.22;;;40.13;;
60292;SDS011;52402;52.670;6.750;2022-09-11T02:29:46;54.67;;;40.20;;
60292;SDS011;52402;52.670;6.750;2022-09-11T02:32:12;65.68;;;41.25;;
60292;SDS011;52402;52.670;6.750;2022-09-11T02:34:38;149.05;;;47.03;;
60292;SDS011;52402;52.670;6.750;2022-09-11T02:40:03;78.72;;;42.58;;
60292;SDS011;52402;52.670;6.750;2022-09-11T02:48:23;124.10;;;40.85;;
60292;SDS011;52402;52.670;6.750;2022-09-11T02:51:08;39.95;;;34.33;;
60292;SDS011;52402;52.670;6.750;2022-09-11T02:54:09;42.67;;;35.17;;
60292;SDS011;52402;52.670;6.750;2022-09-11T02:56:48;110.97;;;42.78;;
60292;SDS011;52402;52.670;6.750;2022-09-11T02:59:59;108.15;;;41.20;;
60292;SDS011;52402;52.670;6.750;2022-09-11T03:02:31;82.35;;;40.40;;
60292;SDS011;52402;52.670;6.750;2022-09-11T03:05:00;63.30;;;40.08;;
60292;SDS011;52402;52.670;6.750;2022-09-11T03:07:25;81.50;;;41.03;;
60292;SDS011;52402;52.670;6.750;2022-09-11T03:09:51;47.13;;;36.67;;
60292;SDS011;52402;52.670;6.750;2022-09-11T03:12:17;140.20;;;42.90;;
60292;SDS011;52402;52.670;6.750;2022-09-11T03:14:42;100.00;;;40.22;;
60292;SDS011;52402;52.670;6.750;2022-09-11T03:17:08;159.70;;;46.08;;
60292;SDS011;52402;52.670;6.750;2022-09-11T03:19:34;190.05;;;46.20;;
60292;SDS011;52402;52.670;6.750;2022-09-11T03:22:00;43.10;;;34.90;;
60292;SDS011;52402;52.670;6.750;2022-09-11T03:24:27;36.53;;;31.45;;
60292;SDS011;52402;52.670;6.750;2022-09-11T03:26:53;149.23;;;41.83;;
60292;SDS011;52402;52.670;6.750;2022-09-11T03:29:19;66.45;;;39.35;;
60292;SDS011;52402;52.670;6.750;2022-09-11T03:31:44;101.20;;;41.85;;
60292;SDS011;52402;52.670;6.750;2022-09-11T03:34:11;37.38;;;33.58;;
60292;SDS011;52402;52.670;6.750;2022-09-11T03:36:37;60.53;;;37.63;;
60292;SDS011;52402;52.670;6.750;2022-09-11T03:39:03;50.88;;;35.95;;
60292;SDS011;52402;52.670;6.750;2022-09-11T03:41:29;50.67;;;36.90;;
60292;SDS011;52402;52.670;6.750;2022-09-11T03:43:55;69.00;;;39.78;;
60292;SDS011;52402;52.670;6.750;2022-09-11T03:46:21;65.78;;;40.60;;
60292;SDS011;52402;52.670;6.750;2022-09-11T03:48:48;49.72;;;32.90;;
60292;SDS011;52402;52.670;6.750;2022-09-11T03:51:14;49.33;;;35.95;;
60292;SDS011;52402;52.670;6.750;2022-09-11T03:53:42;169.02;;;40.65;;
60292;SDS011;52402;52.670;6.750;2022-09-11T03:56:09;52.47;;;33.95;;
60292;SDS011;52402;52.670;6.750;2022-09-11T03:58:35;90.28;;;39.85;;
60292;SDS011;52402;52.670;6.750;2022-09-11T04:01:08;35.58;;;31.73;;
60292;SDS011;52402;52.670;6.750;2022-09-11T04:03:39;34.92;;;31.23;;
60292;SDS011;52402;52.670;6.750;2022-09-11T04:06:06;69.32;;;36.95;;
60292;SDS011;52402;52.670;6.750;2022-09-11T04:08:31;56.20;;;34.00;;
60292;SDS011;52402;52.670;6.750;2022-09-11T04:10:58;43.65;;;33.97;;
60292;SDS011;52402;52.670;6.750;2022-09-11T04:13:29;41.88;;;32.50;;
60292;SDS011;52402;52.670;6.750;2022-09-11T04:16:12;34.30;;;30.58;;
60292;SDS011;52402;52.670;6.750;2022-09-11T04:18:41;29.45;;;26.55;;
60292;SDS011;52402;52.670;6.750;2022-09-11T04:21:09;37.13;;;31.30;;
60292;SDS011;52402;52.670;6.750;2022-09-11T04:23:36;30.60;;;27.58;;
60292;SDS011;52402;52.670;6.750;2022-09-11T04:26:02;39.95;;;31.95;;
60292;SDS011;52402;52.670;6.750;2022-09-11T04:28:36;33.60;;;30.05;;
60292;SDS011;52402;52.670;6.750;2022-09-11T04:31:02;35.00;;;31.20;;
60292;SDS011;52402;52.670;6.750;2022-09-11T04:33:28;44.10;;;33.90;;
60292;SDS011;52402;52.670;6.750;2022-09-11T04:35:54;34.42;;;30.73;;
60292;SDS011;52402;52.670;6.750;2022-09-11T04:38:19;34.08;;;30.42;;
60292;SDS011;52402;52.670;6.750;2022-09-11T04:40:47;43.10;;;34.30;;
60292;SDS011;52402;52.670;6.750;2022-09-11T04:43:13;72.75;;;39.15;;
60292;SDS011;52402;52.670;6.750;2022-09-11T04:45:40;37.70;;;32.25;;
60292;SDS011;52402;52.670;6.750;2022-09-11T04:48:05;39.63;;;30.48;;
60292;SDS011;52402;52.670;6.750;2022-09-11T04:50:31;51.95;;;36.28;;
60292;SDS011;52402;52.670;6.750;2022-09-11T04:52:57;36.65;;;32.65;;
60292;SDS011;52402;52.670;6.750;2022-09-11T04:55:23;36.35;;;32.42;;
60292;SDS011;52402;52.670;6.750;2022-09-11T04:57:49;35.97;;;32.25;;
60292;SDS011;52402;52.670;6.750;2022-09-11T05:00:15;34.05;;;30.45;;
60292;SDS011;52402;52.670;6.750;2022-09-11T05:02:41;33.65;;;30.05;;
60292;SDS011;52402;52.670;6.750;2022-09-11T05:05:07;32.92;;;29.52;;
60292;SDS011;52402;52.670;6.750;2022-09-11T05:07:33;32.35;;;28.95;;
60292;SDS011;52402;52.670;6.750;2022-09-11T05:09:59;30.75;;;27.77;;
60292;SDS011;52402;52.670;6.750;2022-09-11T05:12:25;31.27;;;27.98;;
60292;SDS011;52402;52.670;6.750;2022-09-11T05:14:52;28.40;;;25.70;;
60292;SDS011;52402;52.670;6.750;2022-09-11T05:17:18;33.95;;;28.58;;
60292;SDS011;52402;52.670;6.750;2022-09-11T05:19:43;34.00;;;29.85;;
60292;SDS011;52402;52.670;6.750;2022-09-11T05:22:09;30.65;;;27.55;;
60292;SDS011;52402;52.670;6.750;2022-09-11T05:24:34;30.10;;;27.00;;
60292;SDS011;52402;52.670;6.750;2022-09-11T05:27:00;32.85;;;29.23;;
60292;SDS011;52402;52.670;6.750;2022-09-11T05:29:26;29.83;;;26.92;;
60292;SDS011;52402;52.670;6.750;2022-09-11T05:31:55;36.10;;;29.35;;
60292;SDS011;52402;52.670;6.750;2022-09-11T05:34:24;32.00;;;28.80;;
60292;SDS011;52402;52.670;6.750;2022-09-11T05:36:55;28.30;;;25.58;;
60292;SDS011;52402;52.670;6.750;2022-09-11T05:39:21;35.80;;;29.75;;
60292;SDS011;52402;52.670;6.750;2022-09-11T05:41:51;33.70;;;29.77;;
60292;SDS011;52402;52.670;6.750;2022-09-11T05:44:17;35.95;;;29.25;;
60292;SDS011;52402;52.670;6.750;2022-09-11T05:46:43;41.70;;;31.92;;
60292;SDS011;52402;52.670;6.750;2022-09-11T05:49:10;27.88;;;25.38;;
60292;SDS011;52402;52.670;6.750;2022-09-11T05:51:35;31.88;;;28.67;;
60292;SDS011;52402;52.670;6.750;2022-09-11T05:54:02;32.13;;;28.90;;
60292;SDS011;52402;52.670;6.750;2022-09-11T05:56:28;31.90;;;28.60;;
60292;SDS011;52402;52.670;6.750;2022-09-11T05:58:53;38.38;;;32.10;;
60292;SDS011;52402;52.670;6.750;2022-09-11T06:01:20;45.60;;;32.22;;
60292;SDS011;52402;52.670;6.750;2022-09-11T06:03:47;56.75;;;35.88;;
60292;SDS011;52402;52.670;6.750;2022-09-11T06:06:13;33.45;;;29.70;;
60292;SDS011;52402;52.670;6.750;2022-09-11T06:08:40;32.08;;;28.77;;
60292;SDS011;52402;52.670;6.750;2022-09-11T06:11:09;31.27;;;28.27;;
60292;SDS011;52402;52.670;6.750;2022-09-11T06:13:38;29.98;;;27.15;;
60292;SDS011;52402;52.670;6.750;2022-09-11T06:16:12;34.30;;;30.90;;
60292;SDS011;52402;52.670;6.750;2022-09-11T06:18:39;31.33;;;28.25;;
60292;SDS011;52402;52.670;6.750;2022-09-11T06:21:06;31.45;;;28.35;;
60292;SDS011;52402;52.670;6.750;2022-09-11T06:23:35;32.50;;;29.20;;
60292;SDS011;52402;52.670;6.750;2022-09-11T06:26:04;30.63;;;27.55;;
60292;SDS011;52402;52.670;6.750;2022-09-11T06:28:35;31.90;;;28.70;;
60292;SDS011;52402;52.670;6.750;2022-09-11T06:31:03;35.20;;;31.50;;
60292;SDS011;52402;52.670;6.750;2022-09-11T06:33:39;30.98;;;28.17;;
60292;SDS011;52402;52.670;6.750;2022-09-11T06:36:14;33.85;;;30.35;;
60292;SDS011;52402;52.670;6.750;2022-09-11T06:38:51;27.42;;;24.98;;
60292;SDS011;52402;52.670;6.750;2022-09-11T06:41:18;28.50;;;25.98;;
60292;SDS011;52402;52.670;6.750;2022-09-11T06:43:45;31.15;;;28.25;;
60292;SDS011;52402;52.670;6.750;2022-09-11T06:46:12;28.50;;;25.92;;
60292;SDS011;52402;52.670;6.750;2022-09-11T06:48:40;30.42;;;27.75;;
60292;SDS011;52402;52.670;6.750;2022-09-11T06:51:08;30.63;;;27.75;;
60292;SDS011;52402;52.670;6.750;2022-09-11T06:53:36;34.08;;;30.70;;
60292;SDS011;52402;52.670;6.750;2022-09-11T06:56:03;29.02;;;26.52;;
60292;SDS011;52402;52.670;6.750;2022-09-11T06:58:30;31.80;;;28.83;;
60292;SDS011;52402;52.670;6.750;2022-09-11T07:01:03;31.38;;;28.48;;
60292;SDS011;52402;52.670;6.750;2022-09-11T07:03:30;33.15;;;29.98;;
60292;SDS011;52402;52.670;6.750;2022-09-11T07:05:56;29.98;;;27.38;;
60292;SDS011;52402;52.670;6.750;2022-09-11T07:08:22;30.88;;;28.17;;
60292;SDS011;52402;52.670;6.750;2022-09-11T07:10:48;29.58;;;26.98;;
60292;SDS011;52402;52.670;6.750;2022-09-11T07:13:13;32.03;;;28.92;;
60292;SDS011;52402;52.670;6.750;2022-09-11T07:15:39;32.75;;;29.75;;
60292;SDS011;52402;52.670;6.750;2022-09-11T07:18:05;30.20;;;27.50;;
60292;SDS011;52402;52.670;6.750;2022-09-11T07:20:31;31.75;;;28.85;;
60292;SDS011;52402;52.670;6.750;2022-09-11T07:22:56;33.25;;;30.10;;
60292;SDS011;52402;52.670;6.750;2022-09-11T07:25:25;35.63;;;32.22;;
60292;SDS011;52402;52.670;6.750;2022-09-11T07:27:51;34.53;;;31.23;;
60292;SDS011;52402;52.670;6.750;2022-09-11T07:30:17;34.88;;;31.58;;
60292;SDS011;52402;52.670;6.750;2022-09-11T07:32:43;33.55;;;30.45;;
60292;SDS011;52402;52.670;6.750;2022-09-11T07:35:09;30.33;;;27.63;;
60292;SDS011;52402;52.670;6.750;2022-09-11T07:37:35;34.05;;;30.85;;
60292;SDS011;52402;52.670;6.750;2022-09-11T07:40:01;36.53;;;33.03;;
60292;SDS011;52402;52.670;6.750;2022-09-11T07:42:27;33.05;;;30.05;;
60292;SDS011;52402;52.670;6.750;2022-09-11T07:44:53;34.22;;;31.02;;
60292;SDS011;52402;52.670;6.750;2022-09-11T07:47:19;33.40;;;30.30;;
60292;SDS011;52402;52.670;6.750;2022-09-11T07:49:45;37.45;;;33.95;;
60292;SDS011;52402;52.670;6.750;2022-09-11T07:52:10;34.30;;;31.02;;
60292;SDS011;52402;52.670;6.750;2022-09-11T07:54:36;35.33;;;32.00;;
60292;SDS011;52402;52.670;6.750;2022-09-11T07:57:02;34.10;;;31.10;;
60292;SDS011;52402;52.670;6.750;2022-09-11T07:59:28;33.05;;;30.02;;
60292;SDS011;52402;52.670;6.750;2022-09-11T08:01:56;35.03;;;31.73;;
60292;SDS011;52402;52.670;6.750;2022-09-11T08:04:21;36.13;;;32.72;;
60292;SDS011;52402;52.670;6.750;2022-09-11T08:06:47;34.97;;;31.80;;
60292;SDS011;52402;52.670;6.750;2022-09-11T08:09:13;35.15;;;31.95;;
60292;SDS011;52402;52.670;6.750;2022-09-11T08:11:44;32.40;;;29.38;;
60292;SDS011;52402;52.670;6.750;2022-09-11T08:14:12;32.50;;;29.67;;
60292;SDS011;52402;52.670;6.750;2022-09-11T08:16:39;30.95;;;28.15;;
60292;SDS011;52402;52.670;6.750;2022-09-11T08:19:06;32.20;;;29.35;;
60292;SDS011;52402;52.670;6.750;2022-09-11T08:21:32;30.63;;;28.13;;
60292;SDS011;52402;52.670;6.750;2022-09-11T08:23:58;29.85;;;27.13;;
60292;SDS011;52402;52.670;6.750;2022-09-11T08:26:26;30.42;;;27.83;;
60292;SDS011;52402;52.670;6.750;2022-09-11T08:28:53;29.73;;;27.13;;
60292;SDS011;52402;52.670;6.750;2022-09-11T08:31:21;30.05;;;27.40;;
60292;SDS011;52402;52.670;6.750;2022-09-11T08:33:51;32.08;;;29.17;;
60292;SDS011;52402;52.670;6.750;2022-09-11T08:36:21;30.20;;;27.63;;
60292;SDS011;52402;52.670;6.750;2022-09-11T08:38:47;29.80;;;27.27;;
60292;SDS011;52402;52.670;6.750;2022-09-11T08:43:47;25.42;;;23.02;;
60292;SDS011;52402;52.670;6.750;2022-09-11T08:46:26;27.58;;;25.20;;
60292;SDS011;52402;52.670;6.750;2022-09-11T08:49:10;26.63;;;24.30;;
60292;SDS011;52402;52.670;6.750;2022-09-11T08:51:55;27.05;;;24.63;;
60292;SDS011;52402;52.670;6.750;2022-09-11T08:54:26;26.25;;;23.95;;
60292;SDS011;52402;52.670;6.750;2022-09-11T08:56:54;21.55;;;19.70;;
60292;SDS011;52402;52.670;6.750;2022-09-11T09:00:01;22.10;;;20.02;;
60292;SDS011;52402;52.670;6.750;2022-09-11T09:05:54;21.95;;;20.05;;
60292;SDS011;52402;52.670;6.750;2022-09-11T09:07:54;19.15;;;17.55;;
60292;SDS011;52402;52.670;6.750;2022-09-11T09:10:49;19.17;;;17.50;;
60292;SDS011;52402;52.670;6.750;2022-09-11T09:18:49;19.20;;;17.42;;
60292;SDS011;52402;52.670;6.750;2022-09-11T09:21:21;16.95;;;15.40;;
60292;SDS011;52402;52.670;6.750;2022-09-11T09:23:54;17.45;;;15.95;;
60292;SDS011;52402;52.670;6.750;2022-09-11T09:26:22;17.48;;;15.88;;
60292;SDS011;52402;52.670;6.750;2022-09-11T09:28:55;17.63;;;15.93;;
60292;SDS011;52402;52.670;6.750;2022-09-11T09:31:27;16.27;;;14.88;;
60292;SDS011;52402;52.670;6.750;2022-09-11T09:33:56;13.88;;;12.45;;
60292;SDS011;52402;52.670;6.750;2022-09-11T09:36:32;14.10;;;12.70;;
60292;SDS011;52402;52.670;6.750;2022-09-11T09:39:12;12.02;;;10.82;;
60292;SDS011;52402;52.670;6.750;2022-09-11T09:49:40;13.95;;;12.55;;
60292;SDS011;52402;52.670;6.750;2022-09-11T09:54:57;11.73;;;9.45;;
60292;SDS011;52402;52.670;6.750;2022-09-11T09:57:26;10.48;;;8.70;;
60292;SDS011;52402;52.670;6.750;2022-09-11T10:05:32;11.48;;;10.38;;
60292;SDS011;52402;52.670;6.750;2022-09-11T10:08:05;11.25;;;10.05;;
60292;SDS011;52402;52.670;6.750;2022-09-11T10:10:57;11.27;;;10.07;;
60292;SDS011;52402;52.670;6.750;2022-09-11T10:13:32;11.55;;;10.40;;
60292;SDS011;52402;52.670;6.750;2022-09-11T10:16:02;11.90;;;10.48;;
60292;SDS011;52402;52.670;6.750;2022-09-11T10:23:41;15.50;;;10.80;;
60292;SDS011;52402;52.670;6.750;2022-09-11T10:26:24;11.25;;;9.10;;
60292;SDS011;52402;52.670;6.750;2022-09-11T10:28:53;10.27;;;9.00;;
60292;SDS011;52402;52.670;6.750;2022-09-11T10:31:24;10.00;;;7.80;;
60292;SDS011;52402;52.670;6.750;2022-09-11T10:33:51;11.07;;;8.30;;
60292;SDS011;52402;52.670;6.750;2022-09-11T10:36:24;10.00;;;8.80;;
60292;SDS011;52402;52.670;6.750;2022-09-11T10:38:52;10.90;;;8.77;;
60292;SDS011;52402;52.670;6.750;2022-09-11T10:41:27;9.98;;;7.25;;
60292;SDS011;52402;52.670;6.750;2022-09-11T10:44:02;9.02;;;7.20;;
60292;SDS011;52402;52.670;6.750;2022-09-11T10:46:38;8.82;;;6.60;;
60292;SDS011;52402;52.670;6.750;2022-09-11T10:49:16;8.05;;;6.30;;
60292;SDS011;52402;52.670;6.750;2022-09-11T11:02:38;8.25;;;4.75;;
60292;SDS011;52402;52.670;6.750;2022-09-11T11:16:05;6.32;;;4.68;;
60292;SDS011;52402;52.670;6.750;2022-09-11T11:24:01;6.13;;;4.43;;
60292;SDS011;52402;52.670;6.750;2022-09-11T11:26:48;9.15;;;4.57;;
60292;SDS011;52402;52.670;6.750;2022-09-11T11:29:41;9.70;;;5.68;;
60292;SDS011;52402;52.670;6.750;2022-09-11T11:37:47;12.85;;;11.55;;
60292;SDS011;52402;52.670;6.750;2022-09-11T11:40:30;11.20;;;10.10;;
60292;SDS011;52402;52.670;6.750;2022-09-11T11:43:11;13.95;;;12.70;;
60292;SDS011;52402;52.670;6.750;2022-09-11T11:48:27;14.25;;;12.85;;
60292;SDS011;52402;52.670;6.750;2022-09-11T11:50:59;14.70;;;13.20;;
60292;SDS011;52402;52.670;6.750;2022-09-11T11:53:36;15.73;;;14.23;;
60292;SDS011;52402;52.670;6.750;2022-09-11T11:56:13;16.17;;;14.65;;
60292;SDS011;52402;52.670;6.750;2022-09-11T11:59:03;16.02;;;14.57;;
60292;SDS011;52402;52.670;6.750;2022-09-11T12:02:38;16.42;;;14.93;;
60292;SDS011;52402;52.670;6.750;2022-09-11T12:04:44;17.52;;;15.15;;
60292;SDS011;52402;52.670;6.750;2022-09-11T12:09:49;16.67;;;15.05;;
60292;SDS011;52402;52.670;6.750;2022-09-11T12:12:17;16.85;;;15.25;;
60292;SDS011;52402;52.670;6.750;2022-09-11T12:14:52;17.05;;;15.35;;
60292;SDS011;52402;52.670;6.750;2022-09-11T12:17:23;16.08;;;14.57;;
60292;SDS011;52402;52.670;6.750;2022-09-11T12:32:50;14.57;;;13.27;;
60292;SDS011;52402;52.670;6.750;2022-09-11T12:38:10;13.88;;;12.48;;
60292;SDS011;52402;52.670;6.750;2022-09-11T12:41:12;13.15;;;11.95;;
60292;SDS011;52402;52.670;6.750;2022-09-11T12:48:45;12.40;;;11.30;;
60292;SDS011;52402;52.670;6.750;2022-09-11T12:51:23;10.23;;;9.25;;
60292;SDS011;52402;52.670;6.750;2022-09-11T12:53:58;10.15;;;9.05;;
60292;SDS011;52402;52.670;6.750;2022-09-11T12:56:35;10.27;;;9.07;;
60292;SDS011;52402;52.670;6.750;2022-09-11T12:59:50;10.05;;;8.73;;
60292;SDS011;52402;52.670;6.750;2022-09-11T13:04:54;7.68;;;6.88;;
60292;SDS011;52402;52.670;6.750;2022-09-11T13:07:23;7.85;;;6.40;;
60292;SDS011;52402;52.670;6.750;2022-09-11T13:12:57;9.38;;;7.10;;
60292;SDS011;52402;52.670;6.750;2022-09-11T13:18:31;9.32;;;8.32;;
60292;SDS011;52402;52.670;6.750;2022-09-11T13:21:00;9.15;;;7.32;;
60292;SDS011;52402;52.670;6.750;2022-09-11T13:23:46;10.05;;;7.55;;
60292;SDS011;52402;52.670;6.750;2022-09-11T13:26:14;8.48;;;6.70;;
60292;SDS011;52402;52.670;6.750;2022-09-11T13:28:53;7.68;;;5.40;;
60292;SDS011;52402;52.670;6.750;2022-09-11T13:31:31;9.82;;;6.93;;
60292;SDS011;52402;52.670;6.750;2022-09-11T13:34:00;7.85;;;5.75;;
60292;SDS011;52402;52.670;6.750;2022-09-11T13:36:29;7.20;;;5.57;;
60292;SDS011;52402;52.670;6.750;2022-09-11T13:38:56;7.07;;;5.88;;
60292;SDS011;52402;52.670;6.750;2022-09-11T13:41:26;8.20;;;6.50;;
60292;SDS011;52402;52.670;6.750;2022-09-11T13:43:56;7.05;;;5.18;;
60292;SDS011;52402;52.670;6.750;2022-09-11T13:48:52;6.93;;;5.03;;
60292;SDS011;52402;52.670;6.750;2022-09-11T13:51:45;9.75;;;5.70;;
60292;SDS011;52402;52.670;6.750;2022-09-11T13:54:13;6.38;;;5.28;;
60292;SDS011;52402;52.670;6.750;2022-09-11T14:04:51;6.40;;;4.80;;
60292;SDS011;52402;52.670;6.750;2022-09-11T14:07:25;7.30;;;4.68;;
60292;SDS011;52402;52.670;6.750;2022-09-11T14:12:23;6.32;;;4.78;;
60292;SDS011;52402;52.670;6.750;2022-09-11T14:14:51;7.10;;;4.95;;
60292;SDS011;52402;52.670;6.750;2022-09-11T14:17:20;6.25;;;4.10;;
60292;SDS011;52402;52.670;6.750;2022-09-11T14:19:47;6.82;;;3.95;;
60292;SDS011;52402;52.670;6.750;2022-09-11T14:22:15;7.22;;;4.55;;
60292;SDS011;52402;52.670;6.750;2022-09-11T14:24:55;7.47;;;4.70;;
60292;SDS011;52402;52.670;6.750;2022-09-11T14:27:41;5.65;;;4.68;;
60292;SDS011;52402;52.670;6.750;2022-09-11T14:30:24;6.88;;;4.35;;
60292;SDS011;52402;52.670;6.750;2022-09-11T14:35:51;6.82;;;4.20;;
60292;SDS011;52402;52.670;6.750;2022-09-11T14:38:21;6.03;;;4.25;;
60292;SDS011;52402;52.670;6.750;2022-09-11T14:40:50;8.23;;;4.35;;
60292;SDS011;52402;52.670;6.750;2022-09-11T14:43:23;6.38;;;3.67;;
60292;SDS011;52402;52.670;6.750;2022-09-11T14:45:56;6.68;;;3.83;;
60292;SDS011;52402;52.670;6.750;2022-09-11T14:50:52;6.85;;;4.15;;
60292;SDS011;52402;52.670;6.750;2022-09-11T14:53:24;6.70;;;3.97;;
60292;SDS011;52402;52.670;6.750;2022-09-11T14:55:55;6.55;;;4.45;;
60292;SDS011;52402;52.670;6.750;2022-09-11T14:58:23;6.40;;;3.67;;
60292;SDS011;52402;52.670;6.750;2022-09-11T15:00:49;6.13;;;3.40;;
60292;SDS011;52402;52.670;6.750;2022-09-11T15:03:15;5.03;;;3.58;;
60292;SDS011;52402;52.670;6.750;2022-09-11T15:05:41;6.53;;;4.10;;
60292;SDS011;52402;52.670;6.750;2022-09-11T15:08:09;4.75;;;3.50;;
60292;SDS011;52402;52.670;6.750;2022-09-11T15:10:35;6.95;;;3.90;;
60292;SDS011;52402;52.670;6.750;2022-09-11T15:13:00;6.45;;;4.03;;
60292;SDS011;52402;52.670;6.750;2022-09-11T15:15:27;6.22;;;4.05;;
60292;SDS011;52402;52.670;6.750;2022-09-11T15:17:53;5.63;;;3.90;;
60292;SDS011;52402;52.670;6.750;2022-09-11T15:20:19;5.68;;;3.65;;
60292;SDS011;52402;52.670;6.750;2022-09-11T15:22:45;5.95;;;3.42;;
60292;SDS011;52402;52.670;6.750;2022-09-11T15:25:12;6.18;;;3.80;;
60292;SDS011;52402;52.670;6.750;2022-09-11T15:27:38;6.60;;;3.75;;
60292;SDS011;52402;52.670;6.750;2022-09-11T15:30:04;8.05;;;3.80;;
60292;SDS011;52402;52.670;6.750;2022-09-11T15:32:30;8.20;;;3.75;;
60292;SDS011;52402;52.670;6.750;2022-09-11T15:34:55;5.03;;;3.50;;
60292;SDS011;52402;52.670;6.750;2022-09-11T15:37:21;4.63;;;3.20;;
60292;SDS011;52402;52.670;6.750;2022-09-11T15:39:49;5.18;;;3.30;;
60292;SDS011;52402;52.670;6.750;2022-09-11T15:42:15;5.10;;;3.20;;
60292;SDS011;52402;52.670;6.750;2022-09-11T15:44:41;6.93;;;3.35;;
60292;SDS011;52402;52.670;6.750;2022-09-11T15:47:06;6.05;;;3.70;;
60292;SDS011;52402;52.670;6.750;2022-09-11T15:49:33;5.80;;;3.85;;
60292;SDS011;52402;52.670;6.750;2022-09-11T15:52:04;5.05;;;3.70;;
60292;SDS011;52402;52.670;6.750;2022-09-11T15:54:29;6.93;;;3.42;;
60292;SDS011;52402;52.670;6.750;2022-09-11T15:56:55;6.25;;;3.83;;
60292;SDS011;52402;52.670;6.750;2022-09-11T15:59:21;6.82;;;3.55;;
60292;SDS011;52402;52.670;6.750;2022-09-11T16:01:46;5.80;;;3.58;;
60292;SDS011;52402;52.670;6.750;2022-09-11T16:04:13;6.32;;;3.72;;
60292;SDS011;52402;52.670;6.750;2022-09-11T16:06:45;5.57;;;3.67;;
60292;SDS011;52402;52.670;6.750;2022-09-11T16:09:13;7.03;;;3.58;;
60292;SDS011;52402;52.670;6.750;2022-09-11T16:11:39;4.72;;;3.17;;
60292;SDS011;52402;52.670;6.750;2022-09-11T16:14:06;5.03;;;3.28;;
60292;SDS011;52402;52.670;6.750;2022-09-11T16:16:33;5.28;;;3.65;;
60292;SDS011;52402;52.670;6.750;2022-09-11T16:18:59;6.13;;;3.40;;
60292;SDS011;52402;52.670;6.750;2022-09-11T16:21:25;6.55;;;3.53;;
60292;SDS011;52402;52.670;6.750;2022-09-11T16:23:52;5.43;;;3.58;;
60292;SDS011;52402;52.670;6.750;2022-09-11T16:26:19;5.55;;;3.60;;
60292;SDS011;52402;52.670;6.750;2022-09-11T16:28:48;6.35;;;4.05;;
60292;SDS011;52402;52.670;6.750;2022-09-11T16:31:14;6.63;;;3.95;;
60292;SDS011;52402;52.670;6.750;2022-09-11T16:33:41;6.13;;;3.88;;
60292;SDS011;52402;52.670;6.750;2022-09-11T16:36:10;6.53;;;4.00;;
60292;SDS011;52402;52.670;6.750;2022-09-11T16:38:37;6.85;;;3.90;;
60292;SDS011;52402;52.670;6.750;2022-09-11T16:41:08;5.93;;;3.40;;
60292;SDS011;52402;52.670;6.750;2022-09-11T16:43:39;5.85;;;3.60;;
60292;SDS011;52402;52.670;6.750;2022-09-11T16:46:08;6.05;;;3.50;;
60292;SDS011;52402;52.670;6.750;2022-09-11T16:48:36;5.55;;;3.70;;
60292;SDS011;52402;52.670;6.750;2022-09-11T16:51:02;5.80;;;3.80;;
60292;SDS011;52402;52.670;6.750;2022-09-11T16:53:28;8.23;;;3.92;;
60292;SDS011;52402;52.670;6.750;2022-09-11T16:55:56;5.13;;;3.50;;
60292;SDS011;52402;52.670;6.750;2022-09-11T16:58:22;6.00;;;3.67;;
60292;SDS011;52402;52.670;6.750;2022-09-11T17:00:48;5.50;;;3.70;;
60292;SDS011;52402;52.670;6.750;2022-09-11T17:03:14;6.93;;;3.63;;
60292;SDS011;52402;52.670;6.750;2022-09-11T17:05:47;5.68;;;3.60;;
60292;SDS011;52402;52.670;6.750;2022-09-11T17:08:16;5.82;;;3.40;;
60292;SDS011;52402;52.670;6.750;2022-09-11T17:10:45;6.28;;;3.50;;
60292;SDS011;52402;52.670;6.750;2022-09-11T17:13:12;6.10;;;3.53;;
60292;SDS011;52402;52.670;6.750;2022-09-11T17:15:39;6.72;;;3.30;;
60292;SDS011;52402;52.670;6.750;2022-09-11T17:18:08;6.10;;;3.75;;
60292;SDS011;52402;52.670;6.750;2022-09-11T17:20:34;4.90;;;3.53;;